White Rock Automatic Weather Reporting System

CWWK · British Columbia, Kanada

6. Oktober 2022

Uhrzeit Code Wetter Temp. Sichtweite Wolkendecke Wind METAR/SPECI
15:00
V
26 °C 15 mi 25.000 ft 050° 050° 2 kt METAR CYXX 062200Z 05002KT 15SM BKN250 26/11 A3011 RMK CI5 HZ SLP199 DENSITY ALT 1400FT
14:00
V
25 °C 15 mi - 280° 280° 3 kt METAR CYXX 062100Z 28003KT 220V360 15SM SCT250 25/10 A3012 RMK CI4 HZ SLP203 DENSITY ALT 1200FT
13:00
V
23 °C 15 mi - 250° 250° 3 kt METAR CYXX 062000Z 25003KT 230V350 15SM FEW250 23/12 A3014 RMK CI2 HZ SLP209 DENSITY ALT 1000FT
12:00
V
21 °C 15 mi - Var 000° 0 kt METAR CYXX 061900Z 00000KT 15SM FEW240 21/12 A3016 RMK CI1 CI TR VIS 10 S-SW HZ SLP215 DENSITY ALT 700FT
11:00
V
17 °C 15 mi - Var 000° 0 kt METAR CYXX 061800Z 00000KT 15SM FEW003 FEW240 17/13 A3017 RMK SF1CI1 SF TR VIS 10 SE-SW HZ SLP220 DENSITY ALT 200FT
10:27
V
13 °C 15 mi 24.000 ft Var 000° 0 kt METAR CYXX 061727Z 00000KT 15SM SCT002 SCT220 BKN240 13/13 A3018 RMK FG2SF1CC1CI2 CC TR VIS SE-S 10 VIS SW 5 HZ SLP224
10:14
I
13 °C 2 mi 24.000 ft Var Var 2 kt METAR CYXX 061714Z VRB02KT 2SM BR SCT001 SCT220 BKN240 13/13 A3019 RMK FG3SF1CC1CI2 CC TR VIS 15 NW-E SLP225
10:00
L
12 °C 1¼ mi 100 ft Var 000° 0 kt METAR CYXX 061700Z 00000KT 1 1/4SM R07/2600V4000FT/N BR BKN001 BKN220 BKN230 12/12 A3019 RMK FG4ST1CC1CI1 CC TR VIS 15 NW-N SLP225
09:54
I
12 °C 1 mi 24.000 ft Var 000° 0 kt METAR CYXX 061654Z 00000KT 1SM R07/1800V2200FT/N BR FEW220 BKN240 12/11 A3019 RMK FG5CC1CI1 CC TR CI TR VIS 15 NW-N SLP226
09:42
L
11 °C ½ mi 22.000 ft Var 000° 0 kt METAR CYXX 061642Z 00000KT 1/2SM R07/1000V1400FT/N FG BKN220 BKN230 11/11 A3019 RMK FG5CC1CI1 CC TR SLP226
09:07
L
10 °C ⅛ mi 23.000 ft 170° 170° 3 kt METAR CYXX 061607Z 17003KT 1/8SM R07/1100V1200FT/N FG BKN230 10/10 A3019 RMK FG7CI1 CI TR SLP227
09:00
L
10 °C ¼ mi 23.000 ft Var Var 2 kt METAR CYXX 061600Z VRB02KT 1/4SM R07/0800V1200FT/N FG BKN230 10/10 A3019 RMK FG5CI1 VIS 10 N SLP227
08:48
L
9 °C ½ mi 22.000 ft Var 000° 0 kt METAR CYXX 061548Z 00000KT 1/2SM R07/0700V0800FT/N FG BKN220 09/09 A3019 RMK FG5CI2 VIS 1/4 S-SW SLP227
08:34
L
9 °C ⅜ mi 22.000 ft Var 000° 0 kt METAR CYXX 061534Z 00000KT 3/8SM R07/0600V0900FT/N FG BKN220 09/09 A3019 RMK FG5CI2 SLP226
08:00
L
8 °C ⅛ mi 200 ft Var 000° 0 kt METAR CYXX 061500Z 00000KT 1/8SM R07/0900V1100FT/N FG VV002 08/08 A3019 RMK FG8 SLP225
07:00
L
7 °C ¼ mi 100 ft 180° 180° 2 kt METAR CYXX 061400Z 18002KT 1/4SM R07/1400V1800FT/N FG VV001 07/07 A3017 RMK FG8 SLP221
06:50
L
6 °C ½ mi 100 ft 180° 180° 4 kt METAR CYXX 061350Z 18004KT 1/2SM R07/1800V2400FT/N FG VV001 06/06 A3017 RMK FG8 SLP220
06:32
I
7 °C 1½ mi - 200° 200° 3 kt METAR CYXX 061332Z 20003KT 180V260 1 1/2SM R07/4000VP6000FT/U BR HZ SKC 07/07 A3017 RMK HZ2 SLP218
06:00
V
9 °C 5 mi - Var 000° 0 kt METAR CYXX 061300Z 00000KT 5SM R07/3500VP6000FT/N BR SKC 09/09 A3016 RMK SLP217
05:38
V
8 °C 5 mi - 360° 360° 3 kt METAR CYXX 061238Z 36003KT 5SM R07/1200V1600FT/N BR SKC 08/07 A3016 RMK SLP217
05:00
I
10 °C 3 mi - Var Var 2 kt METAR CYXX 061200Z VRB02KT 3SM BR SKC 10/09 A3017 RMK SLP220
04:00
I
9 °C 2½ mi - Var 000° 0 kt METAR CYXX 061100Z 00000KT 2 1/2SM BR SKC 09/09 A3018 RMK SLP221
03:00
I
10 °C 2 mi - Var 000° 0 kt METAR CYXX 061000Z 00000KT 2SM BR HZ FEW230 10/10 A3018 RMK HZ2CI1 CI TR SLP223
02:21
I
10 °C 2 mi - 360° 360° 2 kt METAR CYXX 060921Z 36002KT 2SM BR HZ FEW230 10/09 A3018 RMK HZ2CI1 CI TR SLP222
02:00
I
11 °C 1 mi - 240° 240° 2 kt METAR CYXX 060900Z 24002KT 1SM R07/1200V1600FT/N BR SCT230 11/10 A3018 RMK HZ4CI1 CI TR SLP222
01:34
I
10 °C 1 mi - 120° 120° 4 kt METAR CYXX 060834Z CCA 12004KT 1SM R07/3000V6000FT/U BR SCT230 10/10 A3018 RMK HZ4CI1 CI TR SLP221
01:00
I
11 °C 2½ mi - 010° 010° 2 kt METAR CYXX 060800Z 01002KT 2 1/2SM R07/3500VP6000FT/D BR FEW230 11/10 A3018 RMK CI1 CI TR SLP221
00:34
I
11 °C 3 mi - Var 000° 0 kt METAR CYXX 060734Z 00000KT 3SM R07/3500VP6000FT/N BR SKC 11/11 A3018 RMK SLP221
00:00
V
11 °C 6 mi - Var 000° 0 kt METAR CYXX 060700Z 00000KT 6SM BR SKC 11/11 A3018 RMK SLP221

5. Oktober 2022

Uhrzeit Code Wetter Temp. Sichtweite Wolkendecke Wind METAR/SPECI
23:00
V
12 °C 15 mi - Var 000° 0 kt METAR CYXX 060600Z 00000KT 15SM SKC 12/12 A3017 RMK HZ SLP219
22:00
V
12 °C 15 mi - Var 000° 0 kt METAR CYXX 060500Z 00000KT 15SM SKC 12/12 A3017 RMK HZ SLP218
21:00
V
12 °C 15 mi - 180° 180° 3 kt METAR CYXX 060400Z 18003KT 15SM SKC 12/11 A3016 RMK SLP216
20:00
V
14 °C 15 mi - 170° 170° 5 kt METAR CYXX 060300Z 17005KT 15SM FEW230 14/12 A3015 RMK CI1 CI TR SLP213
19:00
V
16 °C 8 mi 24.000 ft 200° 200° 6 kt METAR CYXX 060200Z 20006KT 8SM BKN240 16/13 A3014 RMK CI5 SLP209
18:00
V
21 °C 20 mi 24.000 ft 260° 260° 5 kt METAR CYXX 060100Z 26005KT 20SM BKN240 21/13 A3014 RMK CI5 HZ SLP208 DENSITY ALT 700FT
17:00
V
22 °C 20 mi - 300° 300° 6 kt METAR CYXX 060000Z 30006KT 240V310 20SM SCT240 22/13 A3014 RMK CI4 HZ SLP209 DENSITY ALT 900FT
16:00
V
22 °C 20 mi 24.000 ft 210° 210° 6 kt METAR CYXX 052300Z 21006KT 170V230 20SM BKN240 22/14 A3014 RMK CI6 HZ SLP210 DENSITY ALT 800FT
15:00
V
22 °C 8 mi - Var Var 4 kt METAR CYXX 052200Z VRB04KT 8SM SCT240 22/13 A3016 RMK CI4 HZ SLP215 DENSITY ALT 800FT
14:00
V
21 °C 6 mi - Var Var 2 kt METAR CYXX 052100Z VRB02KT 6SM HZ SCT240 21/13 A3017 RMK CI4 SLP220 DENSITY ALT 700FT
13:00
V
20 °C 6 mi - Var Var 2 kt METAR CYXX 052000Z VRB02KT 6SM HZ SCT240 20/13 A3018 RMK CI4 SLP223 DENSITY ALT 600FT
12:00
V
18 °C 6 mi 24.000 ft 180° 180° 6 kt METAR CYXX 051900Z 18006KT 130V250 6SM HZ BKN240 18/13 A3019 RMK CI5 SLP226 DENSITY ALT 400FT
11:00
V
17 °C 6 mi - 190° 190° 3 kt METAR CYXX 051800Z 19003KT 160V320 6SM HZ FEW240 17/13 A3020 RMK CI2 SLP229 DENSITY ALT 200FT
10:00
V
15 °C 6 mi - Var 000° 0 kt METAR CYXX 051700Z 00000KT 6SM HZ SCT240 15/13 A3020 RMK CI3 SLP230
09:00
V
12 °C 6 mi 24.000 ft 110° 110° 3 kt METAR CYXX 051600Z 11003KT 070V140 6SM HZ BKN240 12/12 A3020 RMK CI5 SLP229
08:00
V
10 °C 6 mi - 020° 020° 4 kt METAR CYXX 051500Z 02004KT 6SM HZ SCT230 10/10 A3019 RMK CI3 SLP225
07:00
V
9 °C 6 mi - 340° 340° 3 kt METAR CYXX 051400Z 34003KT 6SM HZ FEW100 09/08 A3017 RMK AC1 AC TR MIFG DIST FU E-SE SLP221
06:35
V
9 °C 5 mi - Var 000° 0 kt METAR CYXX 051335Z 00000KT 5SM R07/3500VP6000FT/U HZ SKC 09/09 A3017 RMK HZ1 DIST FU E-SE SLP221
06:07
I
9 °C 3 mi - Var 000° 0 kt METAR CYXX 051307Z 00000KT 3SM R07/1200V2200FT/N BR HZ FEW100 FEW220 09/09 A3017 RMK HZ2AC1CI1 AC TR CI TR SLP219
05:15
V
10 °C 6 mi - Var 000° 0 kt METAR CYXX 051215Z 00000KT 6SM BR FEW100 FEW220 10/10 A3016 RMK AC1CI1 AC TR CI TR SLP215
05:00
V
10 °C 7 mi - Var Var 2 kt METAR CYXX 051200Z VRB02KT 7SM FEW100 FEW220 10/09 A3016 RMK AC1CI1 AC TR CI TR HZ SLP214
04:00
V
10 °C 7 mi - 340° 340° 3 kt METAR CYXX 051100Z 34003KT 7SM FEW100 FEW220 10/10 A3015 RMK AC1CI1 HZ SLP211
03:00
V
10 °C 7 mi - Var Var 2 kt METAR CYXX 051000Z VRB02KT 7SM FEW100 FEW220 10/10 A3014 RMK AC1CI1 HZ SLP209
02:00
V
10 °C 15 mi - 320° 320° 2 kt METAR CYXX 050900Z 32002KT 15SM FEW220 10/09 A3013 RMK CI1 CI TR HZ SLP205
01:00
V
12 °C 15 mi - 350° 350° 3 kt METAR CYXX 050800Z 35003KT 15SM FEW220 12/11 A3011 RMK CI1 CI TR HZ SLP198
00:00
V
11 °C 15 mi - 090° 090° 2 kt METAR CYXX 050700Z 09002KT 15SM FEW220 11/10 A3010 RMK CI1 CI TR HZ SLP195

4. Oktober 2022

Uhrzeit Code Wetter Temp. Sichtweite Wolkendecke Wind METAR/SPECI
23:00
V
11 °C 15 mi - Var Var 2 kt METAR CYXX 050600Z VRB02KT 15SM FEW220 11/10 A3010 RMK CI1 CI TR SLP194
22:00
V
13 °C 15 mi - Var 000° 0 kt METAR CYXX 050500Z 00000KT 15SM FEW220 13/12 A3008 RMK CI1 CI TR SLP187
21:00
V
13 °C 15 mi - Var 000° 0 kt METAR CYXX 050400Z 00000KT 15SM FEW220 13/12 A3006 RMK CI1 SLP182
20:00
V
14 °C 15 mi - 240° 240° 7 kt METAR CYXX 050300Z 24007KT 15SM FEW230 14/12 A3006 RMK CI1 SLP180
19:00
V
14 °C 8 mi 23.000 ft 230° 230° 6 kt METAR CYXX 050200Z 23006KT 8SM BKN230 14/12 A3003 RMK CI6 HZ SLP172
18:00
V
17 °C 15 mi 24.000 ft 220° 220° 8 kt METAR CYXX 050100Z 22008KT 15SM BKN240 17/12 A3002 RMK CI7 HZ SLP169 DENSITY ALT 300FT
17:00
V
19 °C 8 mi 24.000 ft 210° 210° 10 kt METAR CYXX 050000Z 21010KT 8SM BKN240 19/13 A3002 RMK CI7 HZ SLP167 DENSITY ALT 600FT
16:00
V
19 °C 10 mi 23.000 ft 200° 200° 9 kt METAR CYXX 042300Z 20009KT 10SM BKN230 19/13 A3002 RMK CI7 HZ SLP168 DENSITY ALT 600FT
15:00
V
20 °C 10 mi 23.000 ft 220° 220° 6 kt METAR CYXX 042200Z 22006KT 180V250 10SM BKN230 20/12 A3002 RMK CI7 SLP167 DENSITY ALT 800FT
14:00
V
19 °C 10 mi 23.000 ft 250° 250° 4 kt METAR CYXX 042100Z 25004KT 180V260 10SM BKN230 19/12 A3002 RMK CI6 SLP169 DENSITY ALT 700FT
13:00
V
17 °C 8 mi 24.000 ft 240° 240° 5 kt METAR CYXX 042000Z 24005KT 180V260 8SM SCT210 BKN240 17/12 A3005 RMK CI3CI3 HZ SLP177 DENSITY ALT 400FT
12:00
V
17 °C 8 mi - 240° 240° 6 kt METAR CYXX 041900Z 24006KT 8SM SCT230 17/13 A3006 RMK CI4 SLP180 DENSITY ALT 400FT
11:36
V
16 °C 8 mi - 230° 230° 6 kt METAR CYXX 041836Z 23006KT 8SM SCT210 16/13 A3006 RMK CI4 HZ SLP180 DENSITY ALT 300FT
11:00
I
13 °C 3 mi 21.000 ft 210° 210° 5 kt METAR CYXX 041800Z 21005KT 3SM BR SCT003 BKN210 13/13 A3006 RMK SF4CI2 SLP181
10:47
L
13 °C 3 mi 400 ft 230° 230° 8 kt METAR CYXX 041747Z 23008KT 3SM BR BKN004 13/12 A3006 RMK SF6 SLP182
10:27
L
12 °C 1¼ mi 400 ft 230° 230° 4 kt METAR CYXX 041727Z 23004KT 190V250 1 1/4SM BR BKN004 12/12 A3006 RMK ST6 SLP182
10:20
L
12 °C ¾ mi 300 ft 210° 210° 3 kt METAR CYXX 041720Z 21003KT 190V250 3/4SM R07/2600VP6000FT/U BR BKN003 12/12 A3006 RMK FG2ST4 SLP181
10:06
L
11 °C ⅝ mi 200 ft 200° 200° 3 kt METAR CYXX 041706Z 20003KT 190V270 5/8SM R07/1200V2000FT/N BR BKN002 11/11 A3006 RMK FG4ST2 SLP182
09:55
L
11 °C ½ mi 100 ft 220° 220° 3 kt METAR CYXX 041655Z 22003KT 200V290 1/2SM R07/1400V1600FT/N FG BKN001 11/11 A3006 RMK FG5ST2 SLP183
09:06
L
10 °C ⅜ mi 200 ft 210° 210° 4 kt METAR CYXX 041606Z 21004KT 3/8SM R07/1200V1800FT/N FG VV002 10/10 A3006 RMK FG8 SLP183
09:00
L
10 °C ½ mi 200 ft 200° 200° 4 kt METAR CYXX 041600Z 20004KT 1/2SM R07/1400V1800FT/N FG VV002 10/10 A3006 RMK FG8 SLP183
08:24
L
10 °C ½ mi 21.000 ft 200° 200° 2 kt METAR CYXX 041524Z 20002KT 1/2SM R07/2600V3000FT/N FG SCT002 BKN210 10/09 A3006 RMK FG2ST2CI1 SLP180
08:00
L
9 °C ¼ mi 100 ft Var Var 2 kt METAR CYXX 041500Z VRB02KT 1/4SM R07/0900V1100FT/N FG BKN001 BKN210 09/09 A3005 RMK FG4ST2CI1 SLP178
Ältere Daten

Wir und Dritte verfolgen dein Internetverhalten auf unserer Website mit Cookies. Wenn du fortfährst, gehen wir davon aus, dass du mit unserer Cookie-Richtlinie einverstanden bist. Mehr erfahren